sensor_id;sensor_type;location;lat;lon;timestamp;temperature;humidity
61841;DHT22;47773;53.174;6.614;2023-04-03T00:01:15;3.60;99.90
61841;DHT22;47773;53.174;6.614;2023-04-03T00:03:41;3.60;99.90
61841;DHT22;47773;53.174;6.614;2023-04-03T00:06:07;3.50;99.90
61841;DHT22;47773;53.174;6.614;2023-04-03T00:08:34;3.60;99.90
61841;DHT22;47773;53.174;6.614;2023-04-03T00:11:01;3.50;99.90
61841;DHT22;47773;53.174;6.614;2023-04-03T00:13:27;3.50;99.90
61841;DHT22;47773;53.174;6.614;2023-04-03T00:15:53;3.50;99.90
61841;DHT22;47773;53.174;6.614;2023-04-03T00:18:19;3.40;99.90
61841;DHT22;47773;53.174;6.614;2023-04-03T00:20:45;3.40;99.90
61841;DHT22;47773;53.174;6.614;2023-04-03T00:23:10;3.30;99.90
61841;DHT22;47773;53.174;6.614;2023-04-03T00:25:36;3.30;99.90
61841;DHT22;47773;53.174;6.614;2023-04-03T00:28:03;3.30;99.90
61841;DHT22;47773;53.174;6.614;2023-04-03T00:30:29;3.20;99.90
61841;DHT22;47773;53.174;6.614;2023-04-03T00:32:54;3.20;99.90
61841;DHT22;47773;53.174;6.614;2023-04-03T00:35:21;3.20;99.90
61841;DHT22;47773;53.174;6.614;2023-04-03T00:37:50;3.10;99.90
61841;DHT22;47773;53.174;6.614;2023-04-03T00:40:16;3.10;99.90
61841;DHT22;47773;53.174;6.614;2023-04-03T00:42:43;3.10;99.90
61841;DHT22;47773;53.174;6.614;2023-04-03T00:45:31;3.00;99.90
61841;DHT22;47773;53.174;6.614;2023-04-03T00:47:58;3.00;99.90
61841;DHT22;47773;53.174;6.614;2023-04-03T00:50:27;2.90;99.90
61841;DHT22;47773;53.174;6.614;2023-04-03T00:52:54;2.90;99.90
61841;DHT22;47773;53.174;6.614;2023-04-03T00:55:20;2.90;99.90
61841;DHT22;47773;53.174;6.614;2023-04-03T00:57:47;2.90;99.90
61841;DHT22;47773;53.174;6.614;2023-04-03T01:00:17;2.90;99.90
61841;DHT22;47773;53.174;6.614;2023-04-03T01:02:44;2.90;99.90
61841;DHT22;47773;53.174;6.614;2023-04-03T01:05:11;2.80;99.90
61841;DHT22;47773;53.174;6.614;2023-04-03T01:07:38;2.80;99.90
61841;DHT22;47773;53.174;6.614;2023-04-03T01:10:08;2.80;99.90
61841;DHT22;47773;53.174;6.614;2023-04-03T01:12:39;2.80;99.90
61841;DHT22;47773;53.174;6.614;2023-04-03T01:15:32;2.70;99.90
61841;DHT22;47773;53.174;6.614;2023-04-03T01:18:00;2.70;99.90
61841;DHT22;47773;53.174;6.614;2023-04-03T01:25:51;2.60;99.90
61841;DHT22;47773;53.174;6.614;2023-04-03T01:28:34;2.60;99.90
61841;DHT22;47773;53.174;6.614;2023-04-03T01:33:29;2.50;99.90
61841;DHT22;47773;53.174;6.614;2023-04-03T01:35:55;2.50;99.90
61841;DHT22;47773;53.174;6.614;2023-04-03T01:38:21;2.50;99.90
61841;DHT22;47773;53.174;6.614;2023-04-03T01:40:46;2.50;99.90
61841;DHT22;47773;53.174;6.614;2023-04-03T01:43:12;2.50;99.90
61841;DHT22;47773;53.174;6.614;2023-04-03T01:45:38;2.50;99.90
61841;DHT22;47773;53.174;6.614;2023-04-03T01:48:04;2.50;99.90
61841;DHT22;47773;53.174;6.614;2023-04-03T01:50:29;2.50;99.90
61841;DHT22;47773;53.174;6.614;2023-04-03T01:52:55;2.40;99.90
61841;DHT22;47773;53.174;6.614;2023-04-03T01:55:21;2.50;99.90
61841;DHT22;47773;53.174;6.614;2023-04-03T01:57:46;2.40;99.90
61841;DHT22;47773;53.174;6.614;2023-04-03T02:00:13;2.40;99.90
61841;DHT22;47773;53.174;6.614;2023-04-03T02:02:39;2.40;99.90
61841;DHT22;47773;53.174;6.614;2023-04-03T02:05:05;2.40;99.90
61841;DHT22;47773;53.174;6.614;2023-04-03T02:07:32;2.40;99.90
61841;DHT22;47773;53.174;6.614;2023-04-03T02:09:58;2.40;99.90
61841;DHT22;47773;53.174;6.614;2023-04-03T02:12:25;2.40;99.90
61841;DHT22;47773;53.174;6.614;2023-04-03T02:14:51;2.40;99.90
61841;DHT22;47773;53.174;6.614;2023-04-03T02:17:17;2.40;99.90
61841;DHT22;47773;53.174;6.614;2023-04-03T02:19:42;2.30;99.90
61841;DHT22;47773;53.174;6.614;2023-04-03T02:22:08;2.30;99.90
61841;DHT22;47773;53.174;6.614;2023-04-03T02:24:34;2.30;99.90
61841;DHT22;47773;53.174;6.614;2023-04-03T02:26:59;2.30;99.90
61841;DHT22;47773;53.174;6.614;2023-04-03T02:29:25;2.20;99.90
61841;DHT22;47773;53.174;6.614;2023-04-03T02:31:51;2.20;99.90
61841;DHT22;47773;53.174;6.614;2023-04-03T02:34:17;2.20;99.90
61841;DHT22;47773;53.174;6.614;2023-04-03T02:36:43;2.20;99.90
61841;DHT22;47773;53.174;6.614;2023-04-03T02:39:08;2.20;99.90
61841;DHT22;47773;53.174;6.614;2023-04-03T02:41:34;2.20;99.90
61841;DHT22;47773;53.174;6.614;2023-04-03T02:44:08;2.20;99.90
61841;DHT22;47773;53.174;6.614;2023-04-03T02:46:34;2.20;99.90
61841;DHT22;47773;53.174;6.614;2023-04-03T02:49:00;2.20;99.90
61841;DHT22;47773;53.174;6.614;2023-04-03T02:51:25;2.20;99.90
61841;DHT22;47773;53.174;6.614;2023-04-03T02:53:51;2.10;99.90
61841;DHT22;47773;53.174;6.614;2023-04-03T02:56:17;2.10;99.90
61841;DHT22;47773;53.174;6.614;2023-04-03T02:58:44;2.10;99.90
61841;DHT22;47773;53.174;6.614;2023-04-03T03:01:10;2.10;99.90
61841;DHT22;47773;53.174;6.614;2023-04-03T03:03:36;2.10;99.90
61841;DHT22;47773;53.174;6.614;2023-04-03T03:06:07;2.00;99.90
61841;DHT22;47773;53.174;6.614;2023-04-03T03:08:34;2.00;99.90
61841;DHT22;47773;53.174;6.614;2023-04-03T03:10:59;2.00;99.90
61841;DHT22;47773;53.174;6.614;2023-04-03T03:13:26;2.00;99.90
61841;DHT22;47773;53.174;6.614;2023-04-03T03:15:52;2.00;99.90
61841;DHT22;47773;53.174;6.614;2023-04-03T03:18:17;2.00;99.90
61841;DHT22;47773;53.174;6.614;2023-04-03T03:20:43;2.00;99.90
61841;DHT22;47773;53.174;6.614;2023-04-03T03:23:09;1.90;99.90
61841;DHT22;47773;53.174;6.614;2023-04-03T03:25:39;1.90;99.90
61841;DHT22;47773;53.174;6.614;2023-04-03T03:28:05;1.80;99.90
61841;DHT22;47773;53.174;6.614;2023-04-03T03:30:31;1.80;99.90
61841;DHT22;47773;53.174;6.614;2023-04-03T03:32:57;1.70;99.90
61841;DHT22;47773;53.174;6.614;2023-04-03T03:35:22;1.70;99.90
61841;DHT22;47773;53.174;6.614;2023-04-03T03:37:48;1.70;99.90
61841;DHT22;47773;53.174;6.614;2023-04-03T03:40:14;1.60;99.90
61841;DHT22;47773;53.174;6.614;2023-04-03T03:42:39;1.50;99.90
61841;DHT22;47773;53.174;6.614;2023-04-03T03:45:06;1.50;99.90
61841;DHT22;47773;53.174;6.614;2023-04-03T03:47:32;1.30;99.90
61841;DHT22;47773;53.174;6.614;2023-04-03T03:49:57;1.30;99.90
61841;DHT22;47773;53.174;6.614;2023-04-03T03:52:23;1.30;99.90
61841;DHT22;47773;53.174;6.614;2023-04-03T03:54:48;1.30;99.90
61841;DHT22;47773;53.174;6.614;2023-04-03T03:57:14;1.30;99.90
61841;DHT22;47773;53.174;6.614;2023-04-03T03:59:41;1.20;99.90
61841;DHT22;47773;53.174;6.614;2023-04-03T04:02:07;1.20;99.90
61841;DHT22;47773;53.174;6.614;2023-04-03T04:04:33;1.20;99.90
61841;DHT22;47773;53.174;6.614;2023-04-03T04:06:59;1.20;99.90
61841;DHT22;47773;53.174;6.614;2023-04-03T04:09:26;1.10;99.90
61841;DHT22;47773;53.174;6.614;2023-04-03T04:11:52;1.10;99.90
61841;DHT22;47773;53.174;6.614;2023-04-03T04:14:18;1.10;99.90
61841;DHT22;47773;53.174;6.614;2023-04-03T04:16:46;1.10;99.90
61841;DHT22;47773;53.174;6.614;2023-04-03T04:19:12;1.10;99.90
61841;DHT22;47773;53.174;6.614;2023-04-03T04:21:38;1.10;99.90
61841;DHT22;47773;53.174;6.614;2023-04-03T04:24:05;1.10;99.90
61841;DHT22;47773;53.174;6.614;2023-04-03T04:26:30;1.00;99.90
61841;DHT22;47773;53.174;6.614;2023-04-03T04:28:56;1.00;99.90
61841;DHT22;47773;53.174;6.614;2023-04-03T04:31:22;1.00;99.90
61841;DHT22;47773;53.174;6.614;2023-04-03T04:33:47;0.90;99.90
61841;DHT22;47773;53.174;6.614;2023-04-03T04:36:13;0.90;99.90
61841;DHT22;47773;53.174;6.614;2023-04-03T04:38:40;0.90;99.90
61841;DHT22;47773;53.174;6.614;2023-04-03T04:41:06;0.90;99.90
61841;DHT22;47773;53.174;6.614;2023-04-03T04:43:31;0.90;99.90
61841;DHT22;47773;53.174;6.614;2023-04-03T04:46:15;0.90;99.90
61841;DHT22;47773;53.174;6.614;2023-04-03T04:48:41;1.00;99.90
61841;DHT22;47773;53.174;6.614;2023-04-03T04:51:07;0.90;99.90
61841;DHT22;47773;53.174;6.614;2023-04-03T04:53:33;0.90;99.90
61841;DHT22;47773;53.174;6.614;2023-04-03T04:55:59;0.90;99.90
61841;DHT22;47773;53.174;6.614;2023-04-03T04:58:24;0.90;99.90
61841;DHT22;47773;53.174;6.614;2023-04-03T05:01:02;0.90;99.90
61841;DHT22;47773;53.174;6.614;2023-04-03T05:03:28;0.90;99.90
61841;DHT22;47773;53.174;6.614;2023-04-03T05:05:54;0.90;99.90
61841;DHT22;47773;53.174;6.614;2023-04-03T05:08:20;0.90;99.90
61841;DHT22;47773;53.174;6.614;2023-04-03T05:10:46;0.90;99.90
61841;DHT22;47773;53.174;6.614;2023-04-03T05:13:12;0.80;99.90
61841;DHT22;47773;53.174;6.614;2023-04-03T05:15:38;0.80;99.90
61841;DHT22;47773;53.174;6.614;2023-04-03T05:18:04;0.90;99.90
61841;DHT22;47773;53.174;6.614;2023-04-03T05:20:31;0.80;99.90
61841;DHT22;47773;53.174;6.614;2023-04-03T05:22:56;0.80;99.90
61841;DHT22;47773;53.174;6.614;2023-04-03T05:25:22;0.80;99.90
61841;DHT22;47773;53.174;6.614;2023-04-03T05:27:48;0.90;99.90
61841;DHT22;47773;53.174;6.614;2023-04-03T05:30:14;0.90;99.90
61841;DHT22;47773;53.174;6.614;2023-04-03T05:32:39;0.90;99.90
61841;DHT22;47773;53.174;6.614;2023-04-03T05:35:06;0.90;99.90
61841;DHT22;47773;53.174;6.614;2023-04-03T05:37:33;0.90;99.90
61841;DHT22;47773;53.174;6.614;2023-04-03T05:39:58;0.90;99.90
61841;DHT22;47773;53.174;6.614;2023-04-03T05:42:24;1.00;99.90
61841;DHT22;47773;53.174;6.614;2023-04-03T05:44:50;1.00;99.90
61841;DHT22;47773;53.174;6.614;2023-04-03T05:47:17;1.00;99.90
61841;DHT22;47773;53.174;6.614;2023-04-03T05:49:43;1.00;99.90
61841;DHT22;47773;53.174;6.614;2023-04-03T05:52:25;1.10;99.90
61841;DHT22;47773;53.174;6.614;2023-04-03T05:54:51;1.10;99.90
61841;DHT22;47773;53.174;6.614;2023-04-03T05:57:17;1.10;99.90
61841;DHT22;47773;53.174;6.614;2023-04-03T05:59:44;1.20;99.90
61841;DHT22;47773;53.174;6.614;2023-04-03T06:02:18;1.30;99.90
61841;DHT22;47773;53.174;6.614;2023-04-03T06:04:45;1.50;99.90
61841;DHT22;47773;53.174;6.614;2023-04-03T06:07:13;1.70;99.90
61841;DHT22;47773;53.174;6.614;2023-04-03T06:09:39;2.10;99.90
61841;DHT22;47773;53.174;6.614;2023-04-03T06:12:05;2.50;99.90
61841;DHT22;47773;53.174;6.614;2023-04-03T06:14:30;2.90;99.90
61841;DHT22;47773;53.174;6.614;2023-04-03T06:16:56;3.30;99.90
61841;DHT22;47773;53.174;6.614;2023-04-03T06:19:22;3.70;99.90
61841;DHT22;47773;53.174;6.614;2023-04-03T06:21:48;4.10;99.90
61841;DHT22;47773;53.174;6.614;2023-04-03T06:24:16;4.50;99.90
61841;DHT22;47773;53.174;6.614;2023-04-03T06:26:42;4.90;99.90
61841;DHT22;47773;53.174;6.614;2023-04-03T06:29:08;5.30;99.90
61841;DHT22;47773;53.174;6.614;2023-04-03T06:31:34;5.50;99.90
61841;DHT22;47773;53.174;6.614;2023-04-03T06:34:00;5.90;99.90
61841;DHT22;47773;53.174;6.614;2023-04-03T06:36:26;6.20;99.90
61841;DHT22;47773;53.174;6.614;2023-04-03T06:38:52;6.40;99.90
61841;DHT22;47773;53.174;6.614;2023-04-03T06:41:17;6.70;99.90
61841;DHT22;47773;53.174;6.614;2023-04-03T06:43:44;6.90;99.90
61841;DHT22;47773;53.174;6.614;2023-04-03T06:46:21;7.00;99.90
61841;DHT22;47773;53.174;6.614;2023-04-03T06:48:47;7.20;99.90
61841;DHT22;47773;53.174;6.614;2023-04-03T06:51:24;7.40;99.90
61841;DHT22;47773;53.174;6.614;2023-04-03T06:53:52;7.60;99.90
61841;DHT22;47773;53.174;6.614;2023-04-03T06:56:18;7.80;99.90
61841;DHT22;47773;53.174;6.614;2023-04-03T06:58:45;8.00;99.90
61841;DHT22;47773;53.174;6.614;2023-04-03T07:01:13;8.20;99.90
61841;DHT22;47773;53.174;6.614;2023-04-03T07:03:39;8.20;99.90
61841;DHT22;47773;53.174;6.614;2023-04-03T07:06:06;8.20;99.90
61841;DHT22;47773;53.174;6.614;2023-04-03T07:08:32;8.20;99.90
61841;DHT22;47773;53.174;6.614;2023-04-03T07:10:58;8.40;99.90
61841;DHT22;47773;53.174;6.614;2023-04-03T07:13:24;8.50;99.90
61841;DHT22;47773;53.174;6.614;2023-04-03T07:15:49;8.60;99.90
61841;DHT22;47773;53.174;6.614;2023-04-03T07:18:16;8.60;99.90
61841;DHT22;47773;53.174;6.614;2023-04-03T07:20:43;8.60;99.90
61841;DHT22;47773;53.174;6.614;2023-04-03T07:23:08;8.60;99.90
61841;DHT22;47773;53.174;6.614;2023-04-03T07:25:34;8.40;99.90
61841;DHT22;47773;53.174;6.614;2023-04-03T07:28:00;8.50;99.90
61841;DHT22;47773;53.174;6.614;2023-04-03T07:30:26;8.30;99.90
61841;DHT22;47773;53.174;6.614;2023-04-03T07:32:52;8.20;99.90
61841;DHT22;47773;53.174;6.614;2023-04-03T07:35:18;8.10;99.90
61841;DHT22;47773;53.174;6.614;2023-04-03T07:37:44;8.10;99.90
61841;DHT22;47773;53.174;6.614;2023-04-03T07:40:10;8.10;99.90
61841;DHT22;47773;53.174;6.614;2023-04-03T07:42:36;8.10;99.90
61841;DHT22;47773;53.174;6.614;2023-04-03T07:45:03;8.10;99.90
61841;DHT22;47773;53.174;6.614;2023-04-03T07:47:30;8.20;99.90
61841;DHT22;47773;53.174;6.614;2023-04-03T07:49:56;8.20;99.90
61841;DHT22;47773;53.174;6.614;2023-04-03T07:52:23;8.20;99.90
61841;DHT22;47773;53.174;6.614;2023-04-03T07:54:48;8.20;99.90
61841;DHT22;47773;53.174;6.614;2023-04-03T07:57:14;8.10;99.10
61841;DHT22;47773;53.174;6.614;2023-04-03T07:59:40;8.00;98.80
61841;DHT22;47773;53.174;6.614;2023-04-03T08:02:11;7.90;98.30
61841;DHT22;47773;53.174;6.614;2023-04-03T08:04:37;7.90;98.40
61841;DHT22;47773;53.174;6.614;2023-04-03T08:07:03;7.90;98.30
61841;DHT22;47773;53.174;6.614;2023-04-03T08:09:29;7.90;98.50
61841;DHT22;47773;53.174;6.614;2023-04-03T08:11:55;7.90;98.10
61841;DHT22;47773;53.174;6.614;2023-04-03T08:14:20;7.80;97.30
61841;DHT22;47773;53.174;6.614;2023-04-03T08:16:47;7.80;96.50
61841;DHT22;47773;53.174;6.614;2023-04-03T08:19:13;7.70;96.90
61841;DHT22;47773;53.174;6.614;2023-04-03T08:21:42;7.80;97.20
61841;DHT22;47773;53.174;6.614;2023-04-03T08:24:09;7.90;95.50
61841;DHT22;47773;53.174;6.614;2023-04-03T08:26:35;7.90;94.60
61841;DHT22;47773;53.174;6.614;2023-04-03T08:29:01;7.80;93.30
61841;DHT22;47773;53.174;6.614;2023-04-03T08:31:27;7.80;91.80
61841;DHT22;47773;53.174;6.614;2023-04-03T08:33:54;7.80;91.60
61841;DHT22;47773;53.174;6.614;2023-04-03T08:36:26;8.00;91.90
61841;DHT22;47773;53.174;6.614;2023-04-03T08:38:53;8.20;90.30
61841;DHT22;47773;53.174;6.614;2023-04-03T08:47:17;8.30;82.30
61841;DHT22;47773;53.174;6.614;2023-04-03T08:49:47;8.50;83.70
61841;DHT22;47773;53.174;6.614;2023-04-03T08:55:33;8.80;81.90
61841;DHT22;47773;53.174;6.614;2023-04-03T08:58:15;9.00;82.10
61841;DHT22;47773;53.174;6.614;2023-04-03T09:00:51;9.20;80.80
61841;DHT22;47773;53.174;6.614;2023-04-03T09:03:21;9.20;77.50
61841;DHT22;47773;53.174;6.614;2023-04-03T09:08:52;9.50;77.80
61841;DHT22;47773;53.174;6.614;2023-04-03T09:14:28;9.90;77.00
61841;DHT22;47773;53.174;6.614;2023-04-03T09:16:59;10.20;74.70
61841;DHT22;47773;53.174;6.614;2023-04-03T09:24:39;10.50;68.70
61841;DHT22;47773;53.174;6.614;2023-04-03T09:27:10;10.50;68.70
61841;DHT22;47773;53.174;6.614;2023-04-03T09:29:41;10.40;68.30
61841;DHT22;47773;53.174;6.614;2023-04-03T09:32:29;10.60;67.80
61841;DHT22;47773;53.174;6.614;2023-04-03T09:35:04;10.50;64.80
61841;DHT22;47773;53.174;6.614;2023-04-03T09:37:41;10.60;64.80
61841;DHT22;47773;53.174;6.614;2023-04-03T09:40:29;10.60;66.10
61841;DHT22;47773;53.174;6.614;2023-04-03T09:43:01;11.20;65.00
61841;DHT22;47773;53.174;6.614;2023-04-03T09:45:34;11.40;65.20
61841;DHT22;47773;53.174;6.614;2023-04-03T09:48:08;11.60;63.30
61841;DHT22;47773;53.174;6.614;2023-04-03T09:50:36;11.70;61.70
61841;DHT22;47773;53.174;6.614;2023-04-03T09:56:00;11.40;55.60
61841;DHT22;47773;53.174;6.614;2023-04-03T09:58:38;11.30;59.70
61841;DHT22;47773;53.174;6.614;2023-04-03T10:01:19;11.10;56.10
61841;DHT22;47773;53.174;6.614;2023-04-03T10:03:46;11.20;60.00
61841;DHT22;47773;53.174;6.614;2023-04-03T10:06:32;11.30;59.70
61841;DHT22;47773;53.174;6.614;2023-04-03T10:08:59;11.30;58.40
61841;DHT22;47773;53.174;6.614;2023-04-03T10:11:26;11.50;58.70
61841;DHT22;47773;53.174;6.614;2023-04-03T10:13:55;11.60;58.70
61841;DHT22;47773;53.174;6.614;2023-04-03T10:16:27;11.70;57.80
61841;DHT22;47773;53.174;6.614;2023-04-03T10:27:49;11.90;56.60
61841;DHT22;47773;53.174;6.614;2023-04-03T10:30:26;12.00;53.70
61841;DHT22;47773;53.174;6.614;2023-04-03T10:41:00;12.10;53.70
61841;DHT22;47773;53.174;6.614;2023-04-03T10:51:37;12.40;53.40
61841;DHT22;47773;53.174;6.614;2023-04-03T10:56:44;12.40;54.20
61841;DHT22;47773;53.174;6.614;2023-04-03T11:01:51;12.30;53.60
61841;DHT22;47773;53.174;6.614;2023-04-03T11:04:19;12.30;53.80
61841;DHT22;47773;53.174;6.614;2023-04-03T11:14:42;12.00;51.50
61841;DHT22;47773;53.174;6.614;2023-04-03T11:22:39;12.10;50.70
61841;DHT22;47773;53.174;6.614;2023-04-03T11:27:46;12.10;52.20
61841;DHT22;47773;53.174;6.614;2023-04-03T11:30:23;11.80;50.80
61841;DHT22;47773;53.174;6.614;2023-04-03T11:35:33;11.80;50.30
61841;DHT22;47773;53.174;6.614;2023-04-03T11:38:02;11.80;51.80
61841;DHT22;47773;53.174;6.614;2023-04-03T11:40:33;11.60;50.40
61841;DHT22;47773;53.174;6.614;2023-04-03T11:45:33;11.50;51.30
61841;DHT22;47773;53.174;6.614;2023-04-03T11:50:48;11.50;51.00
61841;DHT22;47773;53.174;6.614;2023-04-03T11:55:53;11.30;50.10
61841;DHT22;47773;53.174;6.614;2023-04-03T12:00:55;11.20;51.00
61841;DHT22;47773;53.174;6.614;2023-04-03T12:03:32;11.30;50.70
61841;DHT22;47773;53.174;6.614;2023-04-03T12:16:23;11.00;50.70
61841;DHT22;47773;53.174;6.614;2023-04-03T12:29:29;10.80;49.00
61841;DHT22;47773;53.174;6.614;2023-04-03T12:32:22;10.80;49.10
61841;DHT22;47773;53.174;6.614;2023-04-03T12:43:00;10.70;50.90
61841;DHT22;47773;53.174;6.614;2023-04-03T12:45:42;10.70;49.30
61841;DHT22;47773;53.174;6.614;2023-04-03T12:48:18;10.70;50.50
61841;DHT22;47773;53.174;6.614;2023-04-03T12:50:48;10.70;50.80
61841;DHT22;47773;53.174;6.614;2023-04-03T12:53:28;10.60;50.60
61841;DHT22;47773;53.174;6.614;2023-04-03T12:58:46;10.30;49.40
61841;DHT22;47773;53.174;6.614;2023-04-03T13:01:14;10.50;52.30
61841;DHT22;47773;53.174;6.614;2023-04-03T13:03:45;10.60;52.50
61841;DHT22;47773;53.174;6.614;2023-04-03T13:06:22;10.50;52.10
61841;DHT22;47773;53.174;6.614;2023-04-03T13:08:51;10.40;51.70
61841;DHT22;47773;53.174;6.614;2023-04-03T13:11:19;10.40;52.20
61841;DHT22;47773;53.174;6.614;2023-04-03T13:16:25;10.40;52.60
61841;DHT22;47773;53.174;6.614;2023-04-03T13:18:54;10.30;52.20
61841;DHT22;47773;53.174;6.614;2023-04-03T13:21:26;10.30;52.80
61841;DHT22;47773;53.174;6.614;2023-04-03T13:23:57;10.30;52.70
61841;DHT22;47773;53.174;6.614;2023-04-03T13:26:26;10.30;53.20
61841;DHT22;47773;53.174;6.614;2023-04-03T13:28:54;10.40;53.40
61841;DHT22;47773;53.174;6.614;2023-04-03T13:31:26;10.40;52.10
61841;DHT22;47773;53.174;6.614;2023-04-03T13:39:21;10.10;53.00
61841;DHT22;47773;53.174;6.614;2023-04-03T13:41:50;10.10;52.20
61841;DHT22;47773;53.174;6.614;2023-04-03T13:46:42;10.20;53.70
61841;DHT22;47773;53.174;6.614;2023-04-03T13:51:58;10.20;50.70
61841;DHT22;47773;53.174;6.614;2023-04-03T13:54:32;10.20;52.60
61841;DHT22;47773;53.174;6.614;2023-04-03T13:56:59;10.20;52.60
61841;DHT22;47773;53.174;6.614;2023-04-03T13:59:34;10.10;52.20
61841;DHT22;47773;53.174;6.614;2023-04-03T14:06:59;10.00;53.60
61841;DHT22;47773;53.174;6.614;2023-04-03T14:09:27;9.90;53.20
61841;DHT22;47773;53.174;6.614;2023-04-03T14:12:00;10.00;54.50
61841;DHT22;47773;53.174;6.614;2023-04-03T14:14:32;10.10;54.90
61841;DHT22;47773;53.174;6.614;2023-04-03T14:17:02;10.10;54.70
61841;DHT22;47773;53.174;6.614;2023-04-03T14:19:31;10.10;55.30
61841;DHT22;47773;53.174;6.614;2023-04-03T14:22:00;10.00;55.20
61841;DHT22;47773;53.174;6.614;2023-04-03T14:24:26;9.90;55.60
61841;DHT22;47773;53.174;6.614;2023-04-03T14:26:54;9.90;55.80
61841;DHT22;47773;53.174;6.614;2023-04-03T14:29:20;9.70;55.70
61841;DHT22;47773;53.174;6.614;2023-04-03T14:31:49;9.70;56.10
61841;DHT22;47773;53.174;6.614;2023-04-03T14:34:16;9.70;56.80
61841;DHT22;47773;53.174;6.614;2023-04-03T14:36:43;9.70;57.30
61841;DHT22;47773;53.174;6.614;2023-04-03T14:39:15;9.60;57.10
61841;DHT22;47773;53.174;6.614;2023-04-03T14:41:42;9.60;57.70
61841;DHT22;47773;53.174;6.614;2023-04-03T14:44:08;9.50;57.80
61841;DHT22;47773;53.174;6.614;2023-04-03T14:46:38;9.50;58.00
61841;DHT22;47773;53.174;6.614;2023-04-03T14:49:16;9.60;57.20
61841;DHT22;47773;53.174;6.614;2023-04-03T14:51:43;9.60;56.70
61841;DHT22;47773;53.174;6.614;2023-04-03T14:54:22;9.60;57.10
61841;DHT22;47773;53.174;6.614;2023-04-03T14:56:56;9.50;57.20
61841;DHT22;47773;53.174;6.614;2023-04-03T14:59:22;9.40;57.80
61841;DHT22;47773;53.174;6.614;2023-04-03T15:01:48;9.40;58.10
61841;DHT22;47773;53.174;6.614;2023-04-03T15:04:16;9.40;58.60
61841;DHT22;47773;53.174;6.614;2023-04-03T15:06:43;9.40;57.80
61841;DHT22;47773;53.174;6.614;2023-04-03T15:09:29;9.40;57.80
61841;DHT22;47773;53.174;6.614;2023-04-03T15:11:55;9.40;56.30
61841;DHT22;47773;53.174;6.614;2023-04-03T15:14:21;9.40;57.40
61841;DHT22;47773;53.174;6.614;2023-04-03T15:16:47;9.40;56.80
61841;DHT22;47773;53.174;6.614;2023-04-03T15:19:13;9.40;57.00
61841;DHT22;47773;53.174;6.614;2023-04-03T15:21:39;9.50;57.00
61841;DHT22;47773;53.174;6.614;2023-04-03T15:24:05;9.50;57.10
61841;DHT22;47773;53.174;6.614;2023-04-03T15:26:32;9.50;57.10
61841;DHT22;47773;53.174;6.614;2023-04-03T15:28:58;9.50;56.70
61841;DHT22;47773;53.174;6.614;2023-04-03T15:31:24;9.50;56.00
61841;DHT22;47773;53.174;6.614;2023-04-03T15:33:49;9.50;56.60
61841;DHT22;47773;53.174;6.614;2023-04-03T15:36:15;9.50;56.10
61841;DHT22;47773;53.174;6.614;2023-04-03T15:38:40;9.50;56.00
61841;DHT22;47773;53.174;6.614;2023-04-03T15:41:06;9.50;56.60
61841;DHT22;47773;53.174;6.614;2023-04-03T15:43:32;9.50;55.90
61841;DHT22;47773;53.174;6.614;2023-04-03T15:45:59;9.50;56.40
61841;DHT22;47773;53.174;6.614;2023-04-03T15:48:26;9.50;56.00
61841;DHT22;47773;53.174;6.614;2023-04-03T15:50:53;9.50;56.00
61841;DHT22;47773;53.174;6.614;2023-04-03T15:53:18;9.50;57.00
61841;DHT22;47773;53.174;6.614;2023-04-03T15:55:44;9.40;55.90
61841;DHT22;47773;53.174;6.614;2023-04-03T15:58:10;9.50;56.40
61841;DHT22;47773;53.174;6.614;2023-04-03T16:00:36;9.60;56.40
61841;DHT22;47773;53.174;6.614;2023-04-03T16:03:09;9.50;56.00
61841;DHT22;47773;53.174;6.614;2023-04-03T16:05:37;9.40;56.20
61841;DHT22;47773;53.174;6.614;2023-04-03T16:08:03;9.40;56.00
61841;DHT22;47773;53.174;6.614;2023-04-03T16:10:30;9.30;56.30
61841;DHT22;47773;53.174;6.614;2023-04-03T16:12:57;9.20;57.10
61841;DHT22;47773;53.174;6.614;2023-04-03T16:15:23;9.30;57.40
61841;DHT22;47773;53.174;6.614;2023-04-03T16:17:50;9.30;56.40
61841;DHT22;47773;53.174;6.614;2023-04-03T16:20:16;9.20;57.30
61841;DHT22;47773;53.174;6.614;2023-04-03T16:22:44;9.20;57.60
61841;DHT22;47773;53.174;6.614;2023-04-03T16:25:10;9.20;57.30
61841;DHT22;47773;53.174;6.614;2023-04-03T16:27:37;9.10;57.30
61841;DHT22;47773;53.174;6.614;2023-04-03T16:30:05;9.10;57.50
61841;DHT22;47773;53.174;6.614;2023-04-03T16:32:32;9.00;57.60
61841;DHT22;47773;53.174;6.614;2023-04-03T16:34:58;9.00;58.20
61841;DHT22;47773;53.174;6.614;2023-04-03T16:37:23;8.90;57.90
61841;DHT22;47773;53.174;6.614;2023-04-03T16:39:49;8.90;58.10
61841;DHT22;47773;53.174;6.614;2023-04-03T16:42:15;8.80;58.50
61841;DHT22;47773;53.174;6.614;2023-04-03T16:44:41;8.70;58.70
61841;DHT22;47773;53.174;6.614;2023-04-03T16:47:07;8.70;59.60
61841;DHT22;47773;53.174;6.614;2023-04-03T16:49:34;8.60;60.20
61841;DHT22;47773;53.174;6.614;2023-04-03T16:52:01;8.50;61.20
61841;DHT22;47773;53.174;6.614;2023-04-03T16:54:28;8.40;63.20
61841;DHT22;47773;53.174;6.614;2023-04-03T16:56:53;8.30;64.50
61841;DHT22;47773;53.174;6.614;2023-04-03T16:59:20;8.20;65.70
61841;DHT22;47773;53.174;6.614;2023-04-03T17:01:45;8.10;66.70
61841;DHT22;47773;53.174;6.614;2023-04-03T17:04:11;8.00;68.50
61841;DHT22;47773;53.174;6.614;2023-04-03T17:06:38;8.00;70.30
61841;DHT22;47773;53.174;6.614;2023-04-03T17:09:04;7.90;70.00
61841;DHT22;47773;53.174;6.614;2023-04-03T17:11:31;7.80;71.80
61841;DHT22;47773;53.174;6.614;2023-04-03T17:13:57;7.70;72.40
61841;DHT22;47773;53.174;6.614;2023-04-03T17:16:23;7.70;74.10
61841;DHT22;47773;53.174;6.614;2023-04-03T17:18:49;7.60;75.20
61841;DHT22;47773;53.174;6.614;2023-04-03T17:21:16;7.50;76.30
61841;DHT22;47773;53.174;6.614;2023-04-03T17:23:44;7.40;79.30
61841;DHT22;47773;53.174;6.614;2023-04-03T17:26:10;7.30;79.00
61841;DHT22;47773;53.174;6.614;2023-04-03T17:28:36;7.20;79.80
61841;DHT22;47773;53.174;6.614;2023-04-03T17:31:03;7.20;82.00
61841;DHT22;47773;53.174;6.614;2023-04-03T17:33:29;7.10;83.90
61841;DHT22;47773;53.174;6.614;2023-04-03T17:36:00;7.10;86.40
61841;DHT22;47773;53.174;6.614;2023-04-03T17:38:27;7.00;89.90
61841;DHT22;47773;53.174;6.614;2023-04-03T17:41:01;7.00;88.10
61841;DHT22;47773;53.174;6.614;2023-04-03T17:43:27;6.90;91.60
61841;DHT22;47773;53.174;6.614;2023-04-03T17:45:53;6.80;91.10
61841;DHT22;47773;53.174;6.614;2023-04-03T17:48:28;6.80;91.70
61841;DHT22;47773;53.174;6.614;2023-04-03T17:50:54;6.80;93.90
61841;DHT22;47773;53.174;6.614;2023-04-03T17:53:20;6.70;93.50
61841;DHT22;47773;53.174;6.614;2023-04-03T17:55:46;6.60;94.20
61841;DHT22;47773;53.174;6.614;2023-04-03T17:58:11;6.60;95.90
61841;DHT22;47773;53.174;6.614;2023-04-03T18:00:37;6.50;96.90
61841;DHT22;47773;53.174;6.614;2023-04-03T18:03:03;6.50;98.00
61841;DHT22;47773;53.174;6.614;2023-04-03T18:05:29;6.40;99.10
61841;DHT22;47773;53.174;6.614;2023-04-03T18:07:56;6.40;99.50